Time;durP1;ratioP1;P1;durP2;ratioP2;P2;SDS_P1;SDS_P2;PMS_P1;PMS_P2;Temp;Humidity;BMP_temperature;BMP_pressure;BME280_temperature;BME280_humidity;BME280_pressure;Samples;Min_cycle;Max_cycle;Signal;HPM_P1;HPM_P2
2022/04/06 04:00:15;;;;;;;5.10;4.33;;;9.80;99.90;;;;;;6226189;22;20825;31
2022/04/06 04:02:41;;;;;;;5.43;4.22;;;9.90;99.90;;;;;;6223944;22;20020;-76
2022/04/06 04:05:08;;;;;;;5.10;3.95;;;9.90;99.90;;;;;;6253025;22;20478;-76
2022/04/06 04:07:37;;;;;;;6.28;4.28;;;9.90;99.90;;;;;;6225894;22;20064;-76
2022/04/06 04:10:05;;;;;;;5.13;4.47;;;9.80;99.90;;;;;;6252794;22;20005;-76
2022/04/06 04:12:31;;;;;;;5.32;4.10;;;9.90;99.90;;;;;;6253049;22;20340;-75
2022/04/06 04:14:56;;;;;;;4.50;4.07;;;9.80;99.90;;;;;;6291574;22;20019;-78
2022/04/06 04:17:22;;;;;;;5.65;4.35;;;9.80;99.90;;;;;;6320734;22;20019;-78
2022/04/06 04:19:48;;;;;;;5.60;3.63;;;9.80;99.90;;;;;;6317874;22;20003;-79
2022/04/06 04:22:13;;;;;;;7.50;4.50;;;9.80;99.90;;;;;;6320823;22;20035;-78
2022/04/06 04:24:39;;;;;;;5.60;4.78;;;9.90;99.90;;;;;;6319228;22;20046;-80
2022/04/06 04:27:05;;;;;;;6.95;4.55;;;9.90;99.90;;;;;;6321708;22;20011;-80
2022/04/06 04:29:36;;;;;;;5.30;4.15;;;9.80;99.90;;;;;;6320572;22;20397;-81
2022/04/06 04:32:02;;;;;;;5.10;4.45;;;9.80;99.90;;;;;;6318802;22;20004;-81
2022/04/06 04:34:34;;;;;;;5.53;4.40;;;9.70;99.90;;;;;;6320924;22;20439;-80
2022/04/06 04:37:03;;;;;;;5.22;4.28;;;9.70;99.90;;;;;;6318710;22;20034;-78
2022/04/06 04:39:28;;;;;;;5.63;4.65;;;9.70;99.90;;;;;;6320022;22;20062;-78
2022/04/06 04:41:54;;;;;;;5.80;4.65;;;9.70;99.90;;;;;;6319232;22;20062;-80
2022/04/06 04:44:20;;;;;;;6.82;4.55;;;9.60;99.90;;;;;;6328045;22;20015;-78
2022/04/06 04:46:45;;;;;;;6.28;4.72;;;9.60;99.90;;;;;;6331664;22;20014;-86
2022/04/06 04:49:11;;;;;;;6.22;4.97;;;9.60;99.90;;;;;;6332892;22;20046;-79
2022/04/06 04:51:36;;;;;;;7.18;4.75;;;9.60;99.90;;;;;;6321860;22;20004;-79
2022/04/06 04:54:03;;;;;;;5.75;4.68;;;9.60;99.90;;;;;;6316935;22;20008;-79
2022/04/06 04:56:30;;;;;;;7.47;5.07;;;9.60;99.90;;;;;;6316539;22;20004;-79
2022/04/06 04:59:02;;;;;;;5.55;4.35;;;9.50;99.90;;;;;;6316102;22;20011;-78
2022/04/06 05:01:30;;;;;;;5.63;4.70;;;9.60;99.90;;;;;;6317923;22;20003;-78
2022/04/06 05:03:55;;;;;;;6.38;4.97;;;9.60;99.90;;;;;;6318374;22;20030;-79
2022/04/06 05:06:21;;;;;;;6.60;4.75;;;9.60;99.90;;;;;;6318007;22;20447;-79
2022/04/06 05:08:50;;;;;;;7.18;4.65;;;9.60;99.90;;;;;;6320501;22;20012;-79
2022/04/06 05:11:15;;;;;;;5.95;4.47;;;9.60;99.90;;;;;;6318295;22;20053;-79
2022/04/06 05:13:41;;;;;;;7.05;4.78;;;9.70;99.90;;;;;;6316415;22;20054;-79
2022/04/06 05:16:07;;;;;;;6.25;4.57;;;9.70;99.90;;;;;;6318607;22;20003;-79
2022/04/06 05:18:32;;;;;;;7.18;4.70;;;9.60;99.90;;;;;;6318221;22;20015;-79
2022/04/06 05:20:58;;;;;;;7.40;4.47;;;9.60;99.90;;;;;;6291614;22;20015;-78
2022/04/06 05:23:24;;;;;;;5.30;4.60;;;9.60;99.90;;;;;;6291203;22;20007;-79
2022/04/06 05:25:49;;;;;;;5.80;4.65;;;9.60;99.90;;;;;;6319240;22;20343;-79
2022/04/06 05:28:15;;;;;;;5.20;4.45;;;9.60;99.90;;;;;;6316878;22;20016;-79
2022/04/06 05:30:41;;;;;;;6.45;4.60;;;9.60;99.90;;;;;;6290585;22;20004;-79
2022/04/06 05:33:07;;;;;;;6.70;4.03;;;9.60;99.90;;;;;;6290180;22;20018;-79
2022/04/06 05:35:34;;;;;;;7.30;4.43;;;9.60;99.90;;;;;;6290518;22;20011;-79
2022/04/06 05:37:59;;;;;;;6.00;4.35;;;9.70;99.90;;;;;;6317595;22;20018;-79
2022/04/06 05:40:25;;;;;;;6.05;4.20;;;9.70;99.90;;;;;;6290353;22;20008;-79
2022/04/06 05:42:51;;;;;;;5.03;4.30;;;9.70;99.90;;;;;;6318491;22;20007;-79
2022/04/06 05:45:17;;;;;;;4.03;3.65;;;9.70;99.90;;;;;;6317560;22;20000;-79
2022/04/06 05:47:42;;;;;;;8.18;4.07;;;9.70;99.90;;;;;;6290965;22;20426;-79
2022/04/06 05:50:13;;;;;;;5.97;4.18;;;9.70;99.90;;;;;;6318877;22;20000;-79
2022/04/06 05:52:39;;;;;;;6.13;4.13;;;9.70;99.90;;;;;;6291534;22;20727;-79
2022/04/06 05:55:06;;;;;;;5.72;4.18;;;9.80;99.90;;;;;;6292703;22;19999;-79
2022/04/06 05:57:32;;;;;;;5.70;4.25;;;9.80;99.90;;;;;;6290750;22;20014;-79
2022/04/06 05:59:58;;;;;;;6.82;4.10;;;9.80;99.90;;;;;;6290581;22;20012;-79
2022/04/06 06:02:24;;;;;;;5.15;3.60;;;9.90;99.90;;;;;;6292266;22;20019;-80
2022/04/06 06:04:50;;;;;;;6.95;3.72;;;9.90;99.90;;;;;;6291153;22;20067;-79
2022/04/06 06:07:19;;;;;;;4.10;3.60;;;9.90;99.90;;;;;;6292307;22;20007;-80
2022/04/06 06:09:46;;;;;;;5.97;3.97;;;9.90;99.90;;;;;;6291763;22;20433;-79
2022/04/06 06:12:11;;;;;;;4.97;3.63;;;10.00;99.90;;;;;;6294235;22;20007;-79
2022/04/06 06:14:37;;;;;;;4.00;3.60;;;10.00;99.90;;;;;;6304360;22;20018;-80
2022/04/06 06:17:02;;;;;;;7.25;3.80;;;10.10;99.90;;;;;;6318625;22;20086;-79
2022/04/06 06:19:28;;;;;;;7.32;3.88;;;10.10;99.90;;;;;;6317661;22;20011;-79
2022/04/06 06:21:54;;;;;;;7.88;3.92;;;10.20;99.90;;;;;;6315675;22;20000;-79
2022/04/06 06:24:21;;;;;;;5.45;3.47;;;10.10;99.90;;;;;;6317598;22;20012;-79
2022/04/06 06:26:47;;;;;;;5.30;3.38;;;10.10;99.90;;;;;;6318216;22;20461;-79
2022/04/06 06:29:13;;;;;;;5.28;3.40;;;10.20;99.90;;;;;;6317250;22;20064;-79
2022/04/06 06:31:39;;;;;;;4.88;3.20;;;10.20;99.90;;;;;;6316930;22;20035;-79
2022/04/06 06:34:05;;;;;;;4.13;3.30;;;10.30;99.90;;;;;;6317763;22;20008;-79
2022/04/06 06:36:30;;;;;;;5.38;3.40;;;10.30;99.90;;;;;;6317554;22;20019;-79
2022/04/06 06:38:56;;;;;;;5.30;3.55;;;10.30;99.90;;;;;;6318924;22;20008;-79
2022/04/06 06:41:22;;;;;;;5.05;3.80;;;10.50;99.90;;;;;;6317877;22;20078;-79
2022/04/06 06:43:50;;;;;;;6.90;3.30;;;10.50;99.90;;;;;;6320117;22;20081;-79
2022/04/06 06:46:17;;;;;;;4.05;3.08;;;10.60;99.90;;;;;;6322288;22;20065;-79
2022/04/06 06:48:43;;;;;;;3.85;3.28;;;10.80;99.90;;;;;;6315551;22;20016;-79
2022/04/06 06:51:09;;;;;;;4.40;3.40;;;10.90;99.90;;;;;;6317431;22;20078;-80
2022/04/06 06:53:35;;;;;;;5.13;3.17;;;10.80;99.90;;;;;;6317647;22;20027;-79
2022/04/06 06:56:01;;;;;;;3.85;3.25;;;10.90;99.90;;;;;;6315793;22;20012;-79
2022/04/06 06:58:26;;;;;;;4.55;3.40;;;10.80;99.90;;;;;;6317536;22;20419;-80
2022/04/06 07:00:52;;;;;;;5.00;2.75;;;10.80;99.90;;;;;;6317646;22;20011;-80
2022/04/06 07:03:17;;;;;;;3.45;3.15;;;10.90;99.90;;;;;;6315511;22;20019;-80
2022/04/06 07:05:45;;;;;;;3.17;2.67;;;10.90;99.90;;;;;;6317907;22;20533;-80
2022/04/06 07:08:10;;;;;;;8.38;3.40;;;11.10;99.90;;;;;;6316647;22;20777;-80
2022/04/06 07:10:36;;;;;;;6.13;3.10;;;11.30;99.90;;;;;;6315544;22;20015;-80
2022/04/06 07:13:05;;;;;;;4.68;2.97;;;11.40;99.90;;;;;;6315405;22;20008;-80
2022/04/06 07:15:31;;;;;;;4.97;3.08;;;11.50;99.90;;;;;;6314906;22;20058;-80
2022/04/06 07:17:58;;;;;;;8.77;3.50;;;11.50;99.90;;;;;;6314803;22;20012;-80
2022/04/06 07:20:26;;;;;;;5.55;3.10;;;11.80;99.90;;;;;;6314916;22;20011;-80
2022/04/06 07:23:01;;;;;;;3.58;2.75;;;12.00;99.90;;;;;;6315006;22;20493;-79
2022/04/06 07:25:27;;;;;;;3.33;2.50;;;12.20;99.90;;;;;;6314729;22;20035;-80
2022/04/06 07:27:52;;;;;;;3.45;2.70;;;12.40;99.90;;;;;;6314341;22;20015;-80
2022/04/06 07:30:18;;;;;;;5.10;3.03;;;12.40;99.90;;;;;;6316809;22;20000;-80
2022/04/06 07:32:46;;;;;;;5.03;3.17;;;12.30;99.90;;;;;;6315375;22;20008;-80
2022/04/06 07:35:12;;;;;;;4.28;2.85;;;12.40;99.90;;;;;;6316340;22;20422;-80
2022/04/06 07:37:41;;;;;;;3.97;3.30;;;12.40;99.90;;;;;;6316867;22;20015;-80
2022/04/06 07:40:08;;;;;;;4.38;3.22;;;12.60;99.90;;;;;;6317452;22;20004;-80
2022/04/06 07:42:35;;;;;;;5.18;3.03;;;12.60;99.90;;;;;;6316077;22;20091;-80
2022/04/06 07:45:06;;;;;;;3.58;2.88;;;12.60;99.90;;;;;;6315557;22;20015;-80
2022/04/06 07:47:33;;;;;;;3.55;2.50;;;12.60;99.90;;;;;;6316124;22;20329;-80
2022/04/06 07:50:15;;;;;;;4.07;2.72;;;12.60;99.90;;;;;;6316025;22;20368;-80
2022/04/06 07:52:41;;;;;;;5.28;2.75;;;12.50;99.90;;;;;;6316385;22;20062;-80
2022/04/06 07:55:08;;;;;;;3.63;2.40;;;12.60;99.90;;;;;;6320294;22;20007;-79
2022/04/06 07:57:35;;;;;;;3.38;2.25;;;12.70;99.90;;;;;;6317824;22;20004;-79
2022/04/06 08:00:12;;;;;;;4.10;2.85;;;12.80;99.90;;;;;;6317320;22;20015;-80
2022/04/06 08:02:38;;;;;;;3.25;2.05;;;12.60;99.90;;;;;;6318937;22;20447;-80
2022/04/06 08:05:07;;;;;;;3.50;2.45;;;12.70;99.90;;;;;;6316848;22;20012;-80
2022/04/06 08:07:33;;;;;;;2.97;2.08;;;12.70;99.90;;;;;;6316190;22;20006;-80
2022/04/06 08:09:59;;;;;;;5.45;2.53;;;12.80;99.90;;;;;;6314623;22;20008;-80
2022/04/06 08:12:25;;;;;;;3.50;2.22;;;13.00;99.90;;;;;;6316780;22;19999;-80
2022/04/06 08:14:50;;;;;;;4.57;2.22;;;13.00;99.90;;;;;;6318726;22;20091;-79
2022/04/06 08:17:17;;;;;;;3.13;2.38;;;13.10;99.90;;;;;;6319441;22;20396;-79
2022/04/06 08:19:42;;;;;;;4.47;2.20;;;13.00;99.90;;;;;;6290943;22;20473;-80
2022/04/06 08:22:08;;;;;;;3.45;2.25;;;12.90;99.90;;;;;;6290994;22;20007;-80
2022/04/06 08:24:33;;;;;;;2.22;1.85;;;13.00;99.90;;;;;;6319745;22;20027;-80
2022/04/06 08:26:59;;;;;;;4.22;2.13;;;13.00;99.90;;;;;;6291041;22;20541;-80
2022/04/06 08:29:24;;;;;;;3.35;2.10;;;13.00;99.90;;;;;;6318618;22;20011;-80
2022/04/06 08:31:50;;;;;;;3.90;2.10;;;13.30;99.90;;;;;;6291647;22;20012;-79
2022/04/06 08:34:16;;;;;;;3.08;2.00;;;13.10;99.90;;;;;;6291114;22;20031;-80
2022/04/06 08:36:43;;;;;;;3.47;1.90;;;13.20;99.90;;;;;;6293957;22;20011;-80
2022/04/06 08:39:09;;;;;;;2.42;1.98;;;13.30;99.90;;;;;;6293656;22;20019;-80
2022/04/06 08:41:35;;;;;;;3.38;2.03;;;13.40;99.90;;;;;;6322218;22;20320;-79
2022/04/06 08:44:01;;;;;;;3.85;1.88;;;13.40;99.90;;;;;;6293901;22;20077;-81
2022/04/06 08:46:34;;;;;;;2.13;1.70;;;13.60;99.90;;;;;;6321993;22;20000;-80
2022/04/06 08:49:00;;;;;;;3.55;2.10;;;13.90;99.90;;;;;;6321245;22;20478;-80
2022/04/06 08:51:28;;;;;;;2.05;1.83;;;13.80;99.90;;;;;;6320912;22;20014;-79
2022/04/06 08:53:54;;;;;;;3.97;2.10;;;13.70;99.90;;;;;;6293220;22;20018;-80
2022/04/06 08:56:26;;;;;;;2.15;1.70;;;13.60;99.90;;;;;;6293668;22;20038;-80
2022/04/06 08:58:54;;;;;;;2.53;1.67;;;13.70;99.90;;;;;;6321388;22;20422;-79
2022/04/06 09:01:21;;;;;;;2.30;2.08;;;13.60;99.90;;;;;;6294064;22;20529;-80
2022/04/06 09:03:49;;;;;;;3.88;2.15;;;13.60;99.90;;;;;;6293095;22;20414;-80
2022/04/06 09:06:16;;;;;;;2.33;2.05;;;13.70;99.90;;;;;;6293453;22;20007;-80
2022/04/06 09:08:43;;;;;;;2.63;2.00;;;13.40;99.90;;;;;;6289625;22;20016;-79
2022/04/06 09:11:13;;;;;;;4.25;2.60;;;13.40;99.90;;;;;;6289190;22;20465;-79
2022/04/06 09:13:44;;;;;;;2.53;2.10;;;13.40;99.90;;;;;;6288977;22;20098;-79
2022/04/06 09:16:14;;;;;;;3.55;2.58;;;13.40;99.90;;;;;;6289454;22;20422;-79
2022/04/06 09:18:44;;;;;;;2.30;2.10;;;13.10;99.90;;;;;;6316962;22;20003;-79
2022/04/06 09:21:11;;;;;;;3.30;2.30;;;13.20;99.90;;;;;;6289505;22;20034;-79
2022/04/06 09:23:37;;;;;;;2.25;1.90;;;13.20;99.90;;;;;;6289707;22;20020;-80
2022/04/06 09:26:05;;;;;;;3.33;2.03;;;13.10;99.90;;;;;;6289290;22;20007;-79
2022/04/06 09:28:31;;;;;;;2.80;2.10;;;13.20;99.90;;;;;;6295245;22;20008;-79
2022/04/06 09:30:57;;;;;;;4.65;2.17;;;13.10;99.90;;;;;;6330392;22;20849;-79
2022/04/06 09:33:23;;;;;;;3.10;2.30;;;13.00;99.90;;;;;;6333366;22;20019;-79
2022/04/06 09:35:49;;;;;;;4.13;2.58;;;12.90;99.90;;;;;;6306282;22;19999;-79
2022/04/06 09:38:22;;;;;;;3.22;2.33;;;12.70;99.90;;;;;;6307168;22;20004;-79
2022/04/06 09:40:51;;;;;;;2.72;2.20;;;12.60;99.90;;;;;;6303376;22;20003;-79
2022/04/06 09:43:25;;;;;;;2.28;2.05;;;12.70;99.90;;;;;;6323211;22;20018;-79
2022/04/06 09:48:55;;;;;;;2.53;2.03;;;12.80;99.90;;;;;;6318556;22;20062;-79
2022/04/06 09:51:21;;;;;;;2.78;2.10;;;12.80;99.90;;;;;;6291449;22;20388;-79
2022/04/06 09:53:49;;;;;;;2.88;2.30;;;12.80;99.90;;;;;;6317905;22;20039;-79
2022/04/06 09:56:17;;;;;;;3.30;2.70;;;12.80;99.90;;;;;;6291696;22;20142;-79
2022/04/06 09:58:44;;;;;;;3.17;2.20;;;12.90;99.90;;;;;;6318751;22;20739;-79
2022/04/06 10:01:12;;;;;;;3.22;2.00;;;13.20;99.90;;;;;;6319529;22;20004;-79
2022/04/06 10:03:40;;;;;;;3.50;2.40;;;13.20;99.90;;;;;;6319518;22;20459;-79
2022/04/06 10:06:06;;;;;;;5.72;2.45;;;13.20;99.90;;;;;;6289500;22;20462;-79
2022/04/06 10:08:32;;;;;;;4.45;2.08;;;13.20;99.90;;;;;;6288776;22;20008;-79
2022/04/06 10:10:59;;;;;;;2.72;2.17;;;13.40;99.90;;;;;;6287093;22;20004;-79
2022/04/06 10:13:27;;;;;;;3.08;2.30;;;13.50;99.90;;;;;;6287256;22;20069;-79
2022/04/06 10:15:54;;;;;;;4.45;2.70;;;13.50;99.90;;;;;;6317085;22;20008;-79
2022/04/06 10:18:19;;;;;;;2.38;2.13;;;13.60;99.90;;;;;;6289132;22;20008;-79
2022/04/06 10:20:50;;;;;;;2.47;2.05;;;13.60;99.90;;;;;;6287851;22;20006;-79
2022/04/06 10:23:39;;;;;;;2.88;2.17;;;13.50;99.90;;;;;;6316916;22;20011;-79
2022/04/06 10:26:22;;;;;;;3.38;1.73;;;13.60;99.90;;;;;;6316518;22;20502;-79
2022/04/06 10:28:49;;;;;;;3.33;2.15;;;13.80;99.90;;;;;;6316298;22;20007;-79
2022/04/06 10:31:25;;;;;;;3.33;1.90;;;13.90;99.90;;;;;;6288465;22;20007;-79
2022/04/06 10:34:13;;;;;;;2.55;2.13;;;14.00;99.90;;;;;;6289001;22;20065;-79
2022/04/06 10:36:40;;;;;;;3.13;2.40;;;14.20;99.90;;;;;;6288712;22;20008;-78
2022/04/06 10:39:06;;;;;;;3.20;2.25;;;14.50;99.90;;;;;;6288861;22;20011;-78
2022/04/06 10:41:41;;;;;;;4.10;2.13;;;14.60;99.90;;;;;;6317338;22;19999;-78
2022/04/06 10:44:08;;;;;;;3.08;2.17;;;14.50;99.90;;;;;;6316571;22;20008;-78
2022/04/06 10:46:39;;;;;;;3.03;1.60;;;14.70;99.90;;;;;;6287981;22;20493;-78
2022/04/06 10:49:08;;;;;;;2.28;1.80;;;14.50;99.90;;;;;;6287301;22;20098;-78
2022/04/06 10:51:35;;;;;;;3.00;2.00;;;14.50;99.90;;;;;;6288383;22;20006;-78
2022/04/06 10:54:13;;;;;;;2.10;1.67;;;14.50;99.90;;;;;;6315909;22;20072;-78
2022/04/06 10:56:52;;;;;;;2.10;1.90;;;14.40;99.90;;;;;;6287736;22;20008;-78
2022/04/06 10:59:26;;;;;;;3.50;1.77;;;14.50;99.90;;;;;;6287349;22;20012;-79
2022/04/06 11:02:17;;;;;;;2.55;1.92;;;14.70;99.90;;;;;;6287965;22;20026;-79
2022/04/06 11:04:43;;;;;;;6.05;2.08;;;14.70;99.90;;;;;;6288128;22;20035;-78
2022/04/06 11:07:09;;;;;;;5.75;2.03;;;15.00;99.90;;;;;;6287901;22;20031;-78
2022/04/06 11:12:26;;;;;;;2.55;1.90;;;15.20;99.90;;;;;;6315725;22;20003;-78
2022/04/06 11:14:58;;;;;;;7.25;2.60;;;15.10;99.90;;;;;;6298833;22;20016;-78
2022/04/06 11:17:37;;;;;;;3.63;2.40;;;15.20;99.90;;;;;;6316253;22;20027;-78
2022/04/06 11:20:13;;;;;;;2.42;1.80;;;15.40;99.40;;;;;;6315797;22;20010;-78
2022/04/06 11:22:44;;;;;;;2.95;2.05;;;15.70;99.90;;;;;;6313251;22;20426;-78
2022/04/06 11:25:17;;;;;;;3.63;2.10;;;16.10;99.30;;;;;;6315323;22;20043;-78
2022/04/06 11:27:44;;;;;;;2.25;1.80;;;16.10;98.90;;;;;;6316317;22;20328;-78
2022/04/06 11:30:14;;;;;;;2.42;2.08;;;15.90;98.50;;;;;;6316902;22;20008;-78
2022/04/06 11:32:44;;;;;;;2.92;2.30;;;16.00;99.20;;;;;;6316801;22;20057;-79
2022/04/06 11:35:11;;;;;;;2.88;2.33;;;16.00;99.90;;;;;;6315493;22;20015;-79
2022/04/06 11:37:41;;;;;;;3.58;2.50;;;16.10;99.60;;;;;;6314889;22;20015;-78
2022/04/06 11:40:09;;;;;;;3.75;2.33;;;16.10;99.60;;;;;;6317292;22;20027;-78
2022/04/06 11:42:35;;;;;;;4.05;2.28;;;16.10;99.10;;;;;;6316455;22;20087;-79
2022/04/06 11:45:00;;;;;;;4.47;2.70;;;16.00;99.00;;;;;;6317519;22;20031;-79
2022/04/06 11:47:33;;;;;;;3.70;2.13;;;16.00;99.30;;;;;;6317213;22;20457;-79
2022/04/06 11:49:59;;;;;;;2.20;1.80;;;15.90;99.90;;;;;;6316972;22;20443;-79
2022/04/06 11:52:25;;;;;;;2.10;1.90;;;16.40;99.80;;;;;;6317488;22;20073;-79
2022/04/06 11:54:56;;;;;;;3.60;2.20;;;16.60;98.20;;;;;;6318022;22;20696;-79
2022/04/06 11:57:36;;;;;;;2.42;1.95;;;16.80;98.70;;;;;;6318170;22;20004;-79
2022/04/06 12:00:04;;;;;;;2.85;2.00;;;17.10;97.80;;;;;;6319969;22;20012;-79
2022/04/06 12:02:49;;;;;;;2.85;1.90;;;17.30;98.90;;;;;;6321319;22;20010;-79
2022/04/06 12:05:15;;;;;;;2.50;1.58;;;17.60;96.40;;;;;;6318458;22;20068;-79
2022/04/06 12:07:41;;;;;;;1.80;1.48;;;17.60;96.10;;;;;;6316546;22;20077;-79
2022/04/06 12:10:07;;;;;;;2.45;1.65;;;18.10;94.70;;;;;;6316463;22;20522;-79
2022/04/06 12:12:36;;;;;;;2.70;1.40;;;17.90;94.00;;;;;;6316341;22;20011;-79
2022/04/06 12:15:05;;;;;;;2.13;1.50;;;17.30;95.00;;;;;;6317152;22;20011;-79
2022/04/06 12:17:36;;;;;;;2.92;1.77;;;16.80;96.30;;;;;;6289438;22;20057;-79
2022/04/06 12:20:24;;;;;;;3.67;1.65;;;16.50;95.70;;;;;;6290172;22;20518;-79
2022/04/06 12:23:01;;;;;;;2.33;1.55;;;16.60;96.10;;;;;;6318501;22;20000;-79
2022/04/06 12:25:32;;;;;;;1.40;1.30;;;16.80;95.20;;;;;;6290572;22;20011;-79
2022/04/06 12:28:30;;;;;;;1.92;1.58;;;17.00;95.00;;;;;;6290122;22;20788;-79
2022/04/06 12:31:03;;;;;;;5.13;2.40;;;16.80;95.80;;;;;;6207489;22;20004;-79
2022/04/06 12:33:45;;;;;;;4.93;2.35;;;16.70;96.80;;;;;;6292201;22;20067;-79
2022/04/06 12:36:27;;;;;;;3.83;2.65;;;16.20;97.00;;;;;;6293187;22;19995;-79
2022/04/06 12:39:06;;;;;;;3.22;2.50;;;16.40;96.80;;;;;;6291423;22;20600;-79
2022/04/06 12:41:34;;;;;;;4.80;2.50;;;17.00;96.10;;;;;;6291887;22;20006;-79
2022/04/06 12:44:02;;;;;;;3.03;2.10;;;17.10;96.00;;;;;;6291147;22;20080;-79
2022/04/06 12:46:43;;;;;;;3.25;2.40;;;17.30;95.30;;;;;;6291622;22;20070;-79
2022/04/06 12:49:24;;;;;;;2.90;2.08;;;17.10;95.30;;;;;;6318676;22;20092;-79
2022/04/06 12:52:12;;;;;;;3.58;1.90;;;17.30;95.60;;;;;;6292221;22;20004;-79
2022/04/06 12:54:40;;;;;;;1.70;1.50;;;17.30;93.90;;;;;;6291737;22;20511;-79
2022/04/06 12:57:20;;;;;;;3.25;2.15;;;17.10;94.00;;;;;;6291652;22;20037;-79
2022/04/06 13:00:10;;;;;;;2.50;1.95;;;17.10;94.30;;;;;;6291686;22;20034;-79
2022/04/06 13:02:38;;;;;;;3.33;2.28;;;17.40;93.90;;;;;;6291890;22;20396;-79
2022/04/06 13:05:12;;;;;;;3.30;2.47;;;16.70;94.40;;;;;;6319619;22;20008;-79
2022/04/06 13:07:42;;;;;;;4.18;2.22;;;16.60;94.70;;;;;;6291412;22;20008;-79
2022/04/06 13:10:11;;;;;;;2.97;2.30;;;16.50;95.10;;;;;;6291335;22;20004;-79
2022/04/06 13:12:39;;;;;;;4.93;2.10;;;16.50;94.50;;;;;;6293737;22;20004;-79
2022/04/06 13:15:06;;;;;;;2.15;1.73;;;17.00;93.20;;;;;;6305756;22;20459;-79
2022/04/06 13:17:32;;;;;;;5.65;2.03;;;17.50;93.50;;;;;;6314538;22;20004;-79
2022/04/06 13:19:58;;;;;;;2.40;2.05;;;17.60;93.00;;;;;;6313270;22;20008;-79
2022/04/06 13:22:23;;;;;;;3.58;1.90;;;17.80;92.90;;;;;;6314953;22;20162;-79
2022/04/06 13:24:49;;;;;;;2.17;1.70;;;18.40;93.00;;;;;;6313408;22;20034;-79
2022/04/06 13:27:15;;;;;;;1.95;1.50;;;19.10;91.60;;;;;;6313298;22;20015;-79
2022/04/06 13:29:41;;;;;;;2.33;1.52;;;19.70;86.40;;;;;;6313262;22;20012;-79
2022/04/06 13:32:08;;;;;;;2.90;1.52;;;19.90;88.80;;;;;;6315182;22;20440;-79
2022/04/06 13:34:34;;;;;;;2.38;1.40;;;19.90;83.60;;;;;;6315603;22;20015;-79
2022/04/06 13:37:00;;;;;;;2.42;1.90;;;20.00;86.10;;;;;;6315348;22;20004;-79
2022/04/06 13:39:26;;;;;;;1.95;1.45;;;19.80;86.40;;;;;;6313703;22;20474;-79
2022/04/06 13:41:55;;;;;;;2.13;1.70;;;19.30;88.30;;;;;;6314159;22;20061;-79
2022/04/06 13:44:32;;;;;;;1.35;1.25;;;19.00;85.30;;;;;;6314007;22;20007;-79
2022/04/06 13:46:58;;;;;;;1.52;1.42;;;18.80;87.50;;;;;;6315141;22;20003;-79
2022/04/06 13:49:24;;;;;;;3.22;1.50;;;18.30;87.40;;;;;;6314257;22;20086;-79
2022/04/06 13:51:51;;;;;;;4.72;1.90;;;18.50;86.10;;;;;;6314663;22;20079;-79
2022/04/06 13:54:17;;;;;;;2.17;1.70;;;18.50;87.50;;;;;;6315333;22;20015;-79
2022/04/06 13:56:44;;;;;;;3.25;1.85;;;18.40;87.10;;;;;;6313862;22;20019;-80
2022/04/06 13:59:10;;;;;;;4.68;1.77;;;18.20;84.40;;;;;;6315500;22;20458;-80
2022/04/06 14:01:36;;;;;;;4.15;1.80;;;18.60;87.00;;;;;;6317891;22;20000;-80
2022/04/06 14:04:03;;;;;;;1.67;1.27;;;19.30;83.90;;;;;;6316464;22;20004;-80
2022/04/06 14:06:28;;;;;;;2.92;1.60;;;19.80;83.00;;;;;;6318856;22;20014;-80
2022/04/06 14:08:54;;;;;;;3.22;1.80;;;21.10;78.50;;;;;;6317598;22;20440;-80
2022/04/06 14:11:20;;;;;;;5.88;2.97;;;22.10;77.20;;;;;;6318042;22;20011;-80
2022/04/06 14:13:45;;;;;;;3.33;2.08;;;22.00;73.10;;;;;;6319739;22;20041;-80
2022/04/06 14:16:11;;;;;;;8.25;5.05;;;22.00;75.80;;;;;;6298022;22;20015;-80
2022/04/06 14:18:37;;;;;;;5.05;2.65;;;22.60;72.70;;;;;;6297460;22;20015;-80
2022/04/06 14:21:02;;;;;;;6.10;2.97;;;24.10;66.20;;;;;;6293416;22;20458;-80
2022/04/06 14:23:28;;;;;;;3.40;1.48;;;22.70;66.70;;;;;;6317101;22;20035;-80
2022/04/06 14:25:54;;;;;;;12.10;7.65;;;21.00;71.20;;;;;;6317051;22;20004;-79
2022/04/06 14:28:19;;;;;;;5.85;3.58;;;19.90;72.70;;;;;;6316571;22;20083;-80
2022/04/06 14:30:52;;;;;;;3.15;2.35;;;18.30;78.20;;;;;;6316526;22;20031;-79
2022/04/06 14:33:19;;;;;;;4.40;3.00;;;17.40;82.40;;;;;;6290158;22;20012;-80
2022/04/06 14:35:45;;;;;;;3.85;2.60;;;16.80;85.20;;;;;;6289536;22;20069;-80
2022/04/06 14:38:13;;;;;;;3.15;2.60;;;17.80;84.50;;;;;;6290014;22;20004;-80
2022/04/06 14:40:39;;;;;;;2.72;1.63;;;18.80;80.30;;;;;;6292666;22;20008;-80
2022/04/06 14:43:04;;;;;;;3.55;1.60;;;19.90;76.00;;;;;;6318614;22;20004;-80
2022/04/06 14:45:30;;;;;;;2.78;1.83;;;20.80;75.20;;;;;;6288192;22;20007;-80
2022/04/06 14:47:56;;;;;;;1.85;1.65;;;21.20;71.30;;;;;;6288260;22;20491;-80
2022/04/06 14:50:22;;;;;;;3.05;2.38;;;21.60;73.90;;;;;;6288417;22;20015;-80
2022/04/06 14:52:50;;;;;;;2.60;2.22;;;22.20;69.70;;;;;;6288490;22;20007;-80
2022/04/06 14:55:17;;;;;;;4.35;2.20;;;21.20;69.80;;;;;;6288198;22;20012;-80
2022/04/06 14:57:47;;;;;;;4.53;2.30;;;20.40;73.50;;;;;;6288351;22;20086;-80
2022/04/06 15:00:14;;;;;;;4.30;2.10;;;21.30;71.70;;;;;;6289641;22;20059;-80
2022/04/06 15:02:39;;;;;;;2.58;1.88;;;21.80;68.20;;;;;;6317383;22;20015;-80
2022/04/06 15:05:06;;;;;;;3.22;2.00;;;22.20;67.70;;;;;;6317528;22;20015;-80
2022/04/06 15:07:33;;;;;;;3.78;1.90;;;22.70;66.70;;;;;;6290059;22;20012;-80
2022/04/06 15:09:59;;;;;;;2.15;1.92;;;22.80;66.20;;;;;;6288964;22;20018;-80
2022/04/06 15:12:25;;;;;;;3.72;2.10;;;23.20;63.50;;;;;;6289650;22;20526;-80
2022/04/06 15:14:51;;;;;;;3.50;1.77;;;22.50;64.20;;;;;;6316243;22;20086;-80
2022/04/06 15:17:17;;;;;;;2.30;1.85;;;22.90;65.60;;;;;;6289088;22;20455;-80
2022/04/06 15:19:42;;;;;;;2.80;2.10;;;22.70;66.30;;;;;;6317319;22;20012;-81
2022/04/06 15:22:08;;;;;;;3.00;2.28;;;24.00;62.10;;;;;;6318275;22;20066;-81
2022/04/06 15:24:34;;;;;;;5.50;2.78;;;23.60;63.60;;;;;;6317336;22;20023;-81
2022/04/06 15:26:59;;;;;;;4.10;2.40;;;23.70;62.20;;;;;;6289620;22;20011;-80
2022/04/06 15:29:25;;;;;;;4.00;2.75;;;23.60;63.20;;;;;;6317234;22;20035;-80
2022/04/06 15:31:51;;;;;;;5.25;2.38;;;23.80;62.80;;;;;;6289793;22;20467;-81
2022/04/06 15:37:22;;;;;;;3.42;2.10;;;24.50;59.50;;;;;;6317491;22;20004;-80
2022/04/06 15:39:56;;;;;;;2.53;1.80;;;25.00;58.90;;;;;;6289015;22;20012;-80
2022/04/06 15:42:26;;;;;;;3.80;2.25;;;25.60;58.60;;;;;;6290510;22;20004;-80
2022/04/06 15:45:04;;;;;;;4.45;2.17;;;24.90;58.00;;;;;;6290704;22;20473;-80
2022/04/06 15:47:31;;;;;;;4.35;2.20;;;25.70;58.60;;;;;;6290414;22;20003;-80
2022/04/06 15:50:03;;;;;;;2.67;2.15;;;25.50;56.10;;;;;;6318121;22;20016;-80
2022/04/06 15:52:29;;;;;;;2.13;1.83;;;25.80;57.20;;;;;;6266483;22;20015;-80
2022/04/06 15:54:55;;;;;;;4.10;2.08;;;26.90;55.70;;;;;;6291732;22;20451;-80
2022/04/06 15:57:21;;;;;;;4.18;2.03;;;25.70;55.40;;;;;;6290377;22;20019;-81
2022/04/06 15:59:47;;;;;;;4.88;2.10;;;25.30;58.00;;;;;;6318652;22;20004;-80
2022/04/06 16:02:14;;;;;;;4.28;2.20;;;25.30;56.00;;;;;;6292077;22;20008;-80
2022/04/06 16:04:44;;;;;;;3.10;2.05;;;24.60;56.70;;;;;;6290965;22;20023;-80
2022/04/06 16:07:09;;;;;;;2.28;2.00;;;23.00;59.90;;;;;;6289623;22;20007;-82
2022/04/06 16:09:35;;;;;;;3.42;2.00;;;22.40;61.70;;;;;;6285158;22;20023;-78
2022/04/06 16:12:03;;;;;;;3.13;1.92;;;23.50;60.50;;;;;;6305637;22;20008;-78
2022/04/06 16:14:30;;;;;;;3.45;2.00;;;23.50;59.80;;;;;;6276666;22;20738;-77
2022/04/06 16:16:58;;;;;;;4.30;1.95;;;23.80;60.20;;;;;;6252766;22;20013;-78
2022/04/06 16:19:25;;;;;;;3.28;1.90;;;24.30;59.00;;;;;;6251992;22;20031;-77
2022/04/06 16:21:50;;;;;;;4.65;2.10;;;22.40;61.70;;;;;;6251641;22;20028;-77
2022/04/06 16:24:16;;;;;;;5.60;2.22;;;22.30;63.00;;;;;;6252934;22;20015;-78
2022/04/06 16:26:44;;;;;;;3.38;2.13;;;22.40;64.30;;;;;;6252652;22;20015;-80
2022/04/06 16:29:10;;;;;;;3.08;2.08;;;22.10;63.60;;;;;;6250878;22;20013;-78
2022/04/06 16:31:36;;;;;;;4.38;2.10;;;21.50;66.40;;;;;;6252960;22;20438;-77
2022/04/06 16:34:02;;;;;;;2.58;1.85;;;21.40;65.20;;;;;;6252645;22;20475;-77
2022/04/06 16:36:33;;;;;;;4.82;3.22;;;20.30;67.90;;;;;;6250299;22;20024;-76
2022/04/06 16:39:05;;;;;;;5.35;2.70;;;19.30;72.20;;;;;;6251374;22;20059;-76
2022/04/06 16:41:34;;;;;;;4.82;2.40;;;17.90;74.70;;;;;;6248781;22;20004;-78
2022/04/06 16:44:05;;;;;;;4.57;3.13;;;17.20;77.20;;;;;;6251754;22;20013;-77
2022/04/06 16:46:32;;;;;;;5.88;2.83;;;16.80;78.80;;;;;;6252482;22;19997;-77
2022/04/06 16:49:02;;;;;;;5.38;3.10;;;16.50;81.60;;;;;;6252338;22;20060;-77
2022/04/06 16:54:13;;;;;;;3.42;2.08;;;15.70;84.60;;;;;;6255793;22;19997;-79
2022/04/06 16:56:40;;;;;;;3.20;2.10;;;15.50;85.30;;;;;;6257723;22;20081;-80
2022/04/06 16:59:06;;;;;;;4.45;2.33;;;15.30;86.10;;;;;;6250817;22;20467;-79
2022/04/06 17:01:31;;;;;;;3.72;2.22;;;15.10;87.60;;;;;;6253078;22;20012;-81
2022/04/06 17:04:01;;;;;;;7.72;2.50;;;15.00;88.60;;;;;;6252756;22;20071;-76